RJTA(METAR)
07/27 17:00
METAR RJTA 270800Z 33010KT 290V360 9999 FEW020 31/20 Q0997 RMK
2CU020 A2945=
戻る
トップページへ戻る
IMOC Co,.Ltd.